sensor_id;sensor_type;location;lat;lon;timestamp;P1;P2;P0
45112;PMS5003;30873;53.908;27.576;2023-05-09T00:01:27;38.7;34.5;23.2
45112;PMS5003;30873;53.908;27.576;2023-05-09T00:06:50;37;33.2;23.2
45112;PMS5003;30873;53.908;27.576;2023-05-09T00:12:05;38.7;33.1;22.7
45112;PMS5003;30873;53.908;27.576;2023-05-09T00:16:15;38.2;33.4;22.2
45112;PMS5003;30873;53.908;27.576;2023-05-09T00:22:04;38.9;35.4;22.8
45112;PMS5003;30873;53.908;27.576;2023-05-09T00:26:15;39.3;34.2;23.6
45112;PMS5003;30873;53.908;27.576;2023-05-09T00:31:16;42.9;35.7;24.1
45112;PMS5003;30873;53.908;27.576;2023-05-09T00:36:26;42.9;36.9;24.3
45112;PMS5003;30873;53.908;27.576;2023-05-09T00:41:14;43.3;36.7;24.5
45112;PMS5003;30873;53.908;27.576;2023-05-09T00:46:50;43.9;38;25.3
45112;PMS5003;30873;53.908;27.576;2023-05-09T00:51:49;42.1;37.3;24
45112;PMS5003;30873;53.908;27.576;2023-05-09T00:56:51;43.2;37.7;24.9
45112;PMS5003;30873;53.908;27.576;2023-05-09T01:02:02;43.5;36.5;24.7
45112;PMS5003;30873;53.908;27.576;2023-05-09T01:07:03;43.7;37.3;25.2
45112;PMS5003;30873;53.908;27.576;2023-05-09T01:11:18;43.1;38.1;25.5
45112;PMS5003;30873;53.908;27.576;2023-05-09T01:16:50;45;39.7;27.2
45112;PMS5003;30873;53.908;27.576;2023-05-09T01:21:53;50.9;43.1;28.8
45112;PMS5003;30873;53.908;27.576;2023-05-09T01:26:17;46.2;39.6;27.2
45112;PMS5003;30873;53.908;27.576;2023-05-09T01:31:48;48;40.5;27.2
45112;PMS5003;30873;53.908;27.576;2023-05-09T01:36:48;43.9;39.3;26.5
45112;PMS5003;30873;53.908;27.576;2023-05-09T01:42:03;46.4;40.5;27.5
45112;PMS5003;30873;53.908;27.576;2023-05-09T01:47:03;48.8;41.4;27.5
45112;PMS5003;30873;53.908;27.576;2023-05-09T01:51:14;46.4;41;26.9
45112;PMS5003;30873;53.908;27.576;2023-05-09T01:57:03;45.6;39.7;26.9
45112;PMS5003;30873;53.908;27.576;2023-05-09T02:01:53;46.2;39.8;26.4
45112;PMS5003;30873;53.908;27.576;2023-05-09T02:06:27;48.4;40.8;26.9
45112;PMS5003;30873;53.908;27.576;2023-05-09T02:11:22;45.3;39.5;26.6
45112;PMS5003;30873;53.908;27.576;2023-05-09T02:16:49;46.3;39.7;26.5
45112;PMS5003;30873;53.908;27.576;2023-05-09T02:21:39;47.6;40;26
45112;PMS5003;30873;53.908;27.576;2023-05-09T02:26:49;45.7;39.4;26
45112;PMS5003;30873;53.908;27.576;2023-05-09T02:32:03;47.2;39.1;26.4
45112;PMS5003;30873;53.908;27.576;2023-05-09T02:36:15;46.9;39.9;27
45112;PMS5003;30873;53.908;27.576;2023-05-09T02:42:04;48.1;41.1;27.3
45112;PMS5003;30873;53.908;27.576;2023-05-09T02:46:39;47.9;40.7;27.8
45112;PMS5003;30873;53.908;27.576;2023-05-09T02:51:27;47.4;40.3;26.4
45112;PMS5003;30873;53.908;27.576;2023-05-09T02:56:53;48;40.8;27.2
45112;PMS5003;30873;53.908;27.576;2023-05-09T03:01:37;49;42.7;27.9
45112;PMS5003;30873;53.908;27.576;2023-05-09T03:06:27;51.2;44.2;28.7
45112;PMS5003;30873;53.908;27.576;2023-05-09T03:11:49;48.5;39.6;26.9
45112;PMS5003;30873;53.908;27.576;2023-05-09T03:17:03;47.8;40.8;27.2
45112;PMS5003;30873;53.908;27.576;2023-05-09T03:22:03;50.4;42.7;28.1
45112;PMS5003;30873;53.908;27.576;2023-05-09T03:26:49;49.3;42.1;28.9
45112;PMS5003;30873;53.908;27.576;2023-05-09T03:32:03;52.7;44.5;28.8
45112;PMS5003;30873;53.908;27.576;2023-05-09T03:37:03;48.1;42.7;28.2
45112;PMS5003;30873;53.908;27.576;2023-05-09T03:41:39;55.9;45.9;30.8
45112;PMS5003;30873;53.908;27.576;2023-05-09T03:46:49;54.2;44.5;29.5
45112;PMS5003;30873;53.908;27.576;2023-05-09T03:52:03;58.4;46.8;31.4
45112;PMS5003;30873;53.908;27.576;2023-05-09T03:56:29;56.5;46.7;31.3
45112;PMS5003;30873;53.908;27.576;2023-05-09T04:01:27;57.3;45.2;30.2
45112;PMS5003;30873;53.908;27.576;2023-05-09T04:06:33;54.6;45.2;30.3
45112;PMS5003;30873;53.908;27.576;2023-05-09T04:12:03;51.2;42.7;28.1
45112;PMS5003;30873;53.908;27.576;2023-05-09T04:16:53;48.9;41.6;27.7
45112;PMS5003;30873;53.908;27.576;2023-05-09T04:21:49;51.1;42.7;28.5
45112;PMS5003;30873;53.908;27.576;2023-05-09T04:26:53;50.5;41.5;27.9
45112;PMS5003;30873;53.908;27.576;2023-05-09T04:31:27;45.1;38;26.1
45112;PMS5003;30873;53.908;27.576;2023-05-09T04:36:27;35.1;30.8;20.6
45112;PMS5003;30873;53.908;27.576;2023-05-09T04:41:25;34.2;30.1;19.4
45112;PMS5003;30873;53.908;27.576;2023-05-09T04:47:03;33;29.1;18.8
45112;PMS5003;30873;53.908;27.576;2023-05-09T04:52:03;31;28;17.8
45112;PMS5003;30873;53.908;27.576;2023-05-09T04:56:27;32.9;28.6;18.7
45112;PMS5003;30873;53.908;27.576;2023-05-09T05:02:03;29.2;25.8;17.3
45112;PMS5003;30873;53.908;27.576;2023-05-09T05:06:51;25.3;22.3;15.1
45112;PMS5003;30873;53.908;27.576;2023-05-09T05:11:27;25.6;22.9;15.1
45112;PMS5003;30873;53.908;27.576;2023-05-09T05:16:23;21.9;19.5;13.5
45112;PMS5003;30873;53.908;27.576;2023-05-09T05:21:49;20.5;18.3;12.7
45112;PMS5003;30873;53.908;27.576;2023-05-09T05:26:15;19.6;17.2;12
45112;PMS5003;30873;53.908;27.576;2023-05-09T05:31:49;19;16.2;11.1
45112;PMS5003;30873;53.908;27.576;2023-05-09T05:37:03;17.2;15.5;10.3
45112;PMS5003;30873;53.908;27.576;2023-05-09T05:42:03;16.4;14.9;10.7
45112;PMS5003;30873;53.908;27.576;2023-05-09T05:47:03;16.6;14.7;10
45112;PMS5003;30873;53.908;27.576;2023-05-09T05:51:39;17.2;14.9;9.5
45112;PMS5003;30873;53.908;27.576;2023-05-09T05:56:29;15.7;13.9;9.1
45112;PMS5003;30873;53.908;27.576;2023-05-09T06:01:53;14.7;12.2;8.1
45112;PMS5003;30873;53.908;27.576;2023-05-09T06:06:25;12.4;11.4;7.5
45112;PMS5003;30873;53.908;27.576;2023-05-09T06:11:39;14.1;12.3;7.9
45112;PMS5003;30873;53.908;27.576;2023-05-09T06:16:51;14;12.8;8.4
45112;PMS5003;30873;53.908;27.576;2023-05-09T06:22:05;14.1;12.9;8.3
45112;PMS5003;30873;53.908;27.576;2023-05-09T06:26:37;13.6;12.7;8.3
45112;PMS5003;30873;53.908;27.576;2023-05-09T06:31:15;13.1;11.5;7.4
45112;PMS5003;30873;53.908;27.576;2023-05-09T06:37:05;14.7;12.4;7.8
45112;PMS5003;30873;53.908;27.576;2023-05-09T06:42:03;12.7;11.3;7.4
45112;PMS5003;30873;53.908;27.576;2023-05-09T06:46:15;12.1;10.6;7.4
45112;PMS5003;30873;53.908;27.576;2023-05-09T06:51:27;12.8;11.4;7.6
45112;PMS5003;30873;53.908;27.576;2023-05-09T06:57:05;11.8;10.3;6.8
45112;PMS5003;30873;53.908;27.576;2023-05-09T07:01:53;11;9.7;7.2
45112;PMS5003;30873;53.908;27.576;2023-05-09T07:06:27;11;9.6;6.7
45112;PMS5003;30873;53.908;27.576;2023-05-09T07:11:15;10.1;9.4;6.8
45112;PMS5003;30873;53.908;27.576;2023-05-09T07:17:05;10.9;9.4;6.8
45112;PMS5003;30873;53.908;27.576;2023-05-09T07:21:15;10.8;9;6.6
45112;PMS5003;30873;53.908;27.576;2023-05-09T07:26:25;11.7;10.2;6.9
45112;PMS5003;30873;53.908;27.576;2023-05-09T07:32:05;12.2;10.6;7.2
45112;PMS5003;30873;53.908;27.576;2023-05-09T07:36:27;10.8;10;6.8
45112;PMS5003;30873;53.908;27.576;2023-05-09T07:41:39;12.1;11.1;7.4
45112;PMS5003;30873;53.908;27.576;2023-05-09T07:46:51;10.2;8.7;6.6
45112;PMS5003;30873;53.908;27.576;2023-05-09T07:51:27;9.2;8.4;5.3
45112;PMS5003;30873;53.908;27.576;2023-05-09T07:56:53;10.8;9.7;7.1
45112;PMS5003;30873;53.908;27.576;2023-05-09T08:01:27;10.7;8.6;6
45112;PMS5003;30873;53.908;27.576;2023-05-09T08:07:05;11.3;10.4;7.2
45112;PMS5003;30873;53.908;27.576;2023-05-09T08:11:51;9.7;8.8;6.4
45112;PMS5003;30873;53.908;27.576;2023-05-09T08:16:39;10.9;9.7;6.8
45112;PMS5003;30873;53.908;27.576;2023-05-09T08:21:51;9.7;8.8;6.2
45112;PMS5003;30873;53.908;27.576;2023-05-09T08:26:51;10.3;9.2;6.4
45112;PMS5003;30873;53.908;27.576;2023-05-09T08:31:15;12.7;10.9;7.6
45112;PMS5003;30873;53.908;27.576;2023-05-09T08:36:27;11.8;10.3;7.3
45112;PMS5003;30873;53.908;27.576;2023-05-09T08:42:05;11.2;9.5;7.4
45112;PMS5003;30873;53.908;27.576;2023-05-09T08:46:39;10.4;9.4;7
45112;PMS5003;30873;53.908;27.576;2023-05-09T08:52:05;11.2;9.8;6.9
45112;PMS5003;30873;53.908;27.576;2023-05-09T08:56:51;11.1;10.2;7.2
45112;PMS5003;30873;53.908;27.576;2023-05-09T09:01:15;10.2;9;5.4
45112;PMS5003;30873;53.908;27.576;2023-05-09T09:06:53;9.1;8.3;5.4
45112;PMS5003;30873;53.908;27.576;2023-05-09T09:11:15;9.3;8;5.1
45112;PMS5003;30873;53.908;27.576;2023-05-09T09:16:37;8.5;7.5;4.7
45112;PMS5003;30873;53.908;27.576;2023-05-09T09:21:51;10.4;9.3;5.3
45112;PMS5003;30873;53.908;27.576;2023-05-09T09:27:05;8.9;7.8;4.7
45112;PMS5003;30873;53.908;27.576;2023-05-09T09:31:37;8.8;7.8;4.9
45112;PMS5003;30873;53.908;27.576;2023-05-09T09:36:39;8;6.8;4.6
45112;PMS5003;30873;53.908;27.576;2023-05-09T09:41:51;7.1;6.7;4.6
45112;PMS5003;30873;53.908;27.576;2023-05-09T09:47:05;7.5;6.7;4.9
45112;PMS5003;30873;53.908;27.576;2023-05-09T09:51:15;9.2;8.2;5.8
45112;PMS5003;30873;53.908;27.576;2023-05-09T09:56:36;8;7.4;5.1
45112;PMS5003;30873;53.908;27.576;2023-05-09T10:02:05;8.4;8;5.6
45112;PMS5003;30873;53.908;27.576;2023-05-09T10:06:53;9.1;7.9;5.3
45112;PMS5003;30873;53.908;27.576;2023-05-09T10:11:27;7.6;7.4;5.3
45112;PMS5003;30873;53.908;27.576;2023-05-09T10:16:53;7.8;7;5.1
45112;PMS5003;30873;53.908;27.576;2023-05-09T10:22:06;16.3;15.2;12.1
45112;PMS5003;30873;53.908;27.576;2023-05-09T10:26:27;18.2;17.1;14.8
45112;PMS5003;30873;53.908;27.576;2023-05-09T10:31:38;17.2;16.7;13.8
45112;PMS5003;30873;53.908;27.576;2023-05-09T10:37:05;8.9;8.4;6.7
45112;PMS5003;30873;53.908;27.576;2023-05-09T10:41:45;9.8;9.6;6.8
45112;PMS5003;30873;53.908;27.576;2023-05-09T10:46:27;7.2;6.6;4.8
45112;PMS5003;30873;53.908;27.576;2023-05-09T10:51:51;7.2;6.9;4.8
45112;PMS5003;30873;53.908;27.576;2023-05-09T10:56:23;6.8;6.6;5
45112;PMS5003;30873;53.908;27.576;2023-05-09T11:01:51;7.2;6.5;5
45112;PMS5003;30873;53.908;27.576;2023-05-09T11:06:51;7.6;7.1;5.4
45112;PMS5003;30873;53.908;27.576;2023-05-09T11:12:07;9.2;8.3;6
45112;PMS5003;30873;53.908;27.576;2023-05-09T11:17:00;7.1;7.1;5.1
45112;PMS5003;30873;53.908;27.576;2023-05-09T11:22:10;7;6.2;4.7
45112;PMS5003;30873;53.908;27.576;2023-05-09T11:26:37;8.5;7.7;5.5
45112;PMS5003;30873;53.908;27.576;2023-05-09T11:32:05;7.3;7;4.8
45112;PMS5003;30873;53.908;27.576;2023-05-09T11:36:41;8.2;7.4;5.4
45112;PMS5003;30873;53.908;27.576;2023-05-09T11:41:51;7.8;7.1;5
45112;PMS5003;30873;53.908;27.576;2023-05-09T11:46:53;8.3;7.7;5.6
45112;PMS5003;30873;53.908;27.576;2023-05-09T11:51:27;6.7;6.3;4.7
45112;PMS5003;30873;53.908;27.576;2023-05-09T11:56:51;7;6.7;4.8
45112;PMS5003;30873;53.908;27.576;2023-05-09T12:01:27;7.7;7.4;5.3
45112;PMS5003;30873;53.908;27.576;2023-05-09T12:06:15;6.9;6.8;5.1
45112;PMS5003;30873;53.908;27.576;2023-05-09T12:12:08;8.3;7.7;5.7
45112;PMS5003;30873;53.908;27.576;2023-05-09T12:16:27;8.4;8.1;5.6
45112;PMS5003;30873;53.908;27.576;2023-05-09T12:21:27;7.8;7.6;5.4
45112;PMS5003;30873;53.908;27.576;2023-05-09T12:26:39;7.6;7.1;5.3
45112;PMS5003;30873;53.908;27.576;2023-05-09T12:31:53;8.8;8.3;5.5
45112;PMS5003;30873;53.908;27.576;2023-05-09T12:36:15;7.9;7;5.3
45112;PMS5003;30873;53.908;27.576;2023-05-09T12:41:42;8.9;8.3;6.1
45112;PMS5003;30873;53.908;27.576;2023-05-09T12:46:51;8.3;8;5.6
45112;PMS5003;30873;53.908;27.576;2023-05-09T12:52:05;8.1;7.7;5.3
45112;PMS5003;30873;53.908;27.576;2023-05-09T12:57:05;8.2;8.1;5.7
45112;PMS5003;30873;53.908;27.576;2023-05-09T13:01:51;7.4;7.2;5.2
45112;PMS5003;30873;53.908;27.576;2023-05-09T13:07:06;7.9;7.7;5.4
45112;PMS5003;30873;53.908;27.576;2023-05-09T13:11:53;7.8;7.6;5.5
45112;PMS5003;30873;53.908;27.576;2023-05-09T13:16:27;8.6;8;5.9
45112;PMS5003;30873;53.908;27.576;2023-05-09T13:21:25;9;7.9;5.8
45112;PMS5003;30873;53.908;27.576;2023-05-09T13:26:49;8.4;7.5;5.3
45112;PMS5003;30873;53.908;27.576;2023-05-09T13:31:27;9.7;8.5;6.3
45112;PMS5003;30873;53.908;27.576;2023-05-09T13:36:51;7.7;7.4;5.3
45112;PMS5003;30873;53.908;27.576;2023-05-09T13:52:05;7.8;7.2;5.2
45112;PMS5003;30873;53.908;27.576;2023-05-09T13:56:27;7.1;6.6;4.9
45112;PMS5003;30873;53.908;27.576;2023-05-09T14:01:15;8.1;7.5;5.2
45112;PMS5003;30873;53.908;27.576;2023-05-09T14:06:53;8.4;8.1;6
45112;PMS5003;30873;53.908;27.576;2023-05-09T14:11:39;8.2;7.6;5.4
45112;PMS5003;30873;53.908;27.576;2023-05-09T14:16:15;7.4;7;5
45112;PMS5003;30873;53.908;27.576;2023-05-09T14:21:51;8.2;7.6;5.3
45112;PMS5003;30873;53.908;27.576;2023-05-09T14:27:05;7.6;7.4;5.5
45112;PMS5003;30873;53.908;27.576;2023-05-09T14:31:37;8.3;7.9;5.5
45112;PMS5003;30873;53.908;27.576;2023-05-09T14:36:39;8.4;8.2;5.8
45112;PMS5003;30873;53.908;27.576;2023-05-09T14:42:05;7.8;8;6.1
45112;PMS5003;30873;53.908;27.576;2023-05-09T14:47:06;10.5;9.3;6.7
45112;PMS5003;30873;53.908;27.576;2023-05-09T14:51:29;10.3;10;7.4
45112;PMS5003;30873;53.908;27.576;2023-05-09T14:56:27;8.3;8;5.7
45112;PMS5003;30873;53.908;27.576;2023-05-09T15:02:05;22.7;20.9;16.3
45112;PMS5003;30873;53.908;27.576;2023-05-09T15:06:17;18.1;16.4;12.4
45112;PMS5003;30873;53.908;27.576;2023-05-09T15:11:15;16.9;15.7;10.4
45112;PMS5003;30873;53.908;27.576;2023-05-09T15:16:37;11.3;10.8;7.4
45112;PMS5003;30873;53.908;27.576;2023-05-09T15:22:05;7.6;6.9;4.9
45112;PMS5003;30873;53.908;27.576;2023-05-09T15:26:15;8.4;7.7;5
45112;PMS5003;30873;53.908;27.576;2023-05-09T15:31:28;7.1;6.7;4.7
45112;PMS5003;30873;53.908;27.576;2023-05-09T15:36:55;8.2;7.4;5.3
45112;PMS5003;30873;53.908;27.576;2023-05-09T15:41:27;7.6;7;5
45112;PMS5003;30873;53.908;27.576;2023-05-09T15:46:39;8.2;7.8;5.5
45112;PMS5003;30873;53.908;27.576;2023-05-09T15:51:51;7.8;7.2;5.2
45112;PMS5003;30873;53.908;27.576;2023-05-09T15:56:41;8;7.1;5.1
45112;PMS5003;30873;53.908;27.576;2023-05-09T16:02:05;7.2;6.8;5.3
45112;PMS5003;30873;53.908;27.576;2023-05-09T16:06:39;8.6;7.6;5.6
45112;PMS5003;30873;53.908;27.576;2023-05-09T16:16:53;8;7;5.5
45112;PMS5003;30873;53.908;27.576;2023-05-09T16:21:39;8;7;5.5
45112;PMS5003;30873;53.908;27.576;2023-05-09T16:26:25;9;9;6
45112;PMS5003;30873;53.908;27.576;2023-05-09T16:41:51;20;19;15.8
45112;PMS5003;30873;53.908;27.576;2023-05-09T16:47:05;34.1;30.7;25.5
45112;PMS5003;30873;53.908;27.576;2023-05-09T16:51:15;8;8;6
45112;PMS5003;30873;53.908;27.576;2023-05-09T16:57:05;8.9;8.5;5.9
45112;PMS5003;30873;53.908;27.576;2023-05-09T17:01:39;12.4;11.6;9.6
45112;PMS5003;30873;53.908;27.576;2023-05-09T17:06:15;8.3;7.8;5.3
45112;PMS5003;30873;53.908;27.576;2023-05-09T17:11:53;8.2;7.3;5.1
45112;PMS5003;30873;53.908;27.576;2023-05-09T17:16:15;8.7;7.2;5.4
45112;PMS5003;30873;53.908;27.576;2023-05-09T17:21:15;8.8;7.8;5
45112;PMS5003;30873;53.908;27.576;2023-05-09T17:26:51;10.3;9.1;5.7
45112;PMS5003;30873;53.908;27.576;2023-05-09T17:32:05;9.2;8.2;5.3
45112;PMS5003;30873;53.908;27.576;2023-05-09T17:36:37;8.9;7.9;4.9
45112;PMS5003;30873;53.908;27.576;2023-05-09T17:41:41;9.7;8.9;6.1
45112;PMS5003;30873;53.908;27.576;2023-05-09T17:47:07;9.1;8.4;5.3
45112;PMS5003;30873;53.908;27.576;2023-05-09T17:52:07;10.1;8.7;6.1
45112;PMS5003;30873;53.908;27.576;2023-05-09T17:56:55;9.7;9.1;6.9
45112;PMS5003;30873;53.908;27.576;2023-05-09T18:01:51;11.5;10.8;7.6
45112;PMS5003;30873;53.908;27.576;2023-05-09T18:07:07;32;28.2;19
45112;PMS5003;30873;53.908;27.576;2023-05-09T18:11:55;41.1;36.1;24.6
45112;PMS5003;30873;53.908;27.576;2023-05-09T18:16:15;32.7;28.7;20
45112;PMS5003;30873;53.908;27.576;2023-05-09T18:21:25;31.2;27.9;19.2
45112;PMS5003;30873;53.908;27.576;2023-05-09T18:27:05;19.3;16.7;12
45112;PMS5003;30873;53.908;27.576;2023-05-09T18:31:39;19;16.9;12
45112;PMS5003;30873;53.908;27.576;2023-05-09T18:36:25;19.6;16.9;10.5
45112;PMS5003;30873;53.908;27.576;2023-05-09T18:42:05;20.6;18.8;11.9
45112;PMS5003;30873;53.908;27.576;2023-05-09T18:46:41;18.4;16.8;11.9
45112;PMS5003;30873;53.908;27.576;2023-05-09T18:51:59;19.6;17.3;11.7
45112;PMS5003;30873;53.908;27.576;2023-05-09T18:56:51;19.9;16.6;12
45112;PMS5003;30873;53.908;27.576;2023-05-09T19:01:15;17.2;15.9;11.3
45112;PMS5003;30873;53.908;27.576;2023-05-09T19:06:55;19.7;16.2;11.1
45112;PMS5003;30873;53.908;27.576;2023-05-09T19:11:15;20.6;17.8;12
45112;PMS5003;30873;53.908;27.576;2023-05-09T19:17:07;27;23.4;15.1
45112;PMS5003;30873;53.908;27.576;2023-05-09T19:21:51;21.1;17.8;12.1
45112;PMS5003;30873;53.908;27.576;2023-05-09T19:27:05;19.8;16.7;11.7
45112;PMS5003;30873;53.908;27.576;2023-05-09T19:31:37;21.3;18;12
45112;PMS5003;30873;53.908;27.576;2023-05-09T19:36:53;20.7;19.1;12.8
45112;PMS5003;30873;53.908;27.576;2023-05-09T19:41:41;18.7;17.5;12.3
45112;PMS5003;30873;53.908;27.576;2023-05-09T19:46:51;19.7;16.6;11.8
45112;PMS5003;30873;53.908;27.576;2023-05-09T19:51:41;21.7;18;12.1
45112;PMS5003;30873;53.908;27.576;2023-05-09T19:56:15;15.7;15;10.9
45112;PMS5003;30873;53.908;27.576;2023-05-09T20:01:53;16.3;14.3;10.2
45112;PMS5003;30873;53.908;27.576;2023-05-09T20:06:39;14.7;13.4;8.8
45112;PMS5003;30873;53.908;27.576;2023-05-09T20:11:27;16.8;15.1;9.8
45112;PMS5003;30873;53.908;27.576;2023-05-09T20:17:07;13.7;11.5;8.2
45112;PMS5003;30873;53.908;27.576;2023-05-09T20:21:39;11.9;10.9;7.5
45112;PMS5003;30873;53.908;27.576;2023-05-09T20:26:15;13.3;11.3;7.3
45112;PMS5003;30873;53.908;27.576;2023-05-09T20:31:53;12.4;10.9;7.2
45112;PMS5003;30873;53.908;27.576;2023-05-09T20:37:07;11.3;10.1;7
45112;PMS5003;30873;53.908;27.576;2023-05-09T20:41:37;11.4;10;6.8
45112;PMS5003;30873;53.908;27.576;2023-05-09T20:46:27;11;9.9;6.7
45112;PMS5003;30873;53.908;27.576;2023-05-09T20:51:51;13.1;11.3;7.5
45112;PMS5003;30873;53.908;27.576;2023-05-09T20:57:07;18.9;15.5;9.9
45112;PMS5003;30873;53.908;27.576;2023-05-09T21:01:41;18.8;16.1;11
45112;PMS5003;30873;53.908;27.576;2023-05-09T21:06:15;15.1;14;8.9
45112;PMS5003;30873;53.908;27.576;2023-05-09T21:12:05;15.5;13.8;8.6
45112;PMS5003;30873;53.908;27.576;2023-05-09T21:16:55;13.4;11.9;7.9
45112;PMS5003;30873;53.908;27.576;2023-05-09T21:21:25;13.5;11.5;7.2
45112;PMS5003;30873;53.908;27.576;2023-05-09T21:26:35;10.4;10;6.7
45112;PMS5003;30873;53.908;27.576;2023-05-09T21:32:05;10.3;8.9;6
45112;PMS5003;30873;53.908;27.576;2023-05-09T21:36:27;11.7;10.1;6.5
45112;PMS5003;30873;53.908;27.576;2023-05-09T21:41:35;10.3;9;6.3
45112;PMS5003;30873;53.908;27.576;2023-05-09T21:47:05;9;8;5.8
45112;PMS5003;30873;53.908;27.576;2023-05-09T21:51:53;10.4;8.4;5.8
45112;PMS5003;30873;53.908;27.576;2023-05-09T21:56:15;9.3;8.8;5.9
45112;PMS5003;30873;53.908;27.576;2023-05-09T22:01:47;10.5;8.3;5.9
45112;PMS5003;30873;53.908;27.576;2023-05-09T22:06:25;10.1;9;5.9
45112;PMS5003;30873;53.908;27.576;2023-05-09T22:11:17;10.3;9.3;6.3
45112;PMS5003;30873;53.908;27.576;2023-05-09T22:16:15;9.8;9.1;6.1
45112;PMS5003;30873;53.908;27.576;2023-05-09T22:22:07;10.4;9.2;5.8
45112;PMS5003;30873;53.908;27.576;2023-05-09T22:26:53;10.8;9.7;6.1
45112;PMS5003;30873;53.908;27.576;2023-05-09T22:32:07;9.8;9.4;5.9
45112;PMS5003;30873;53.908;27.576;2023-05-09T22:36:37;10.8;9.9;6.4
45112;PMS5003;30873;53.908;27.576;2023-05-09T22:42:07;10.6;9;6
45112;PMS5003;30873;53.908;27.576;2023-05-09T22:46:15;10.4;8.9;6.3
45112;PMS5003;30873;53.908;27.576;2023-05-09T22:51:51;11.3;9.6;6
45112;PMS5003;30873;53.908;27.576;2023-05-09T22:56:39;11.1;9.7;6.3
45112;PMS5003;30873;53.908;27.576;2023-05-09T23:01:29;10.9;9.6;6.1
45112;PMS5003;30873;53.908;27.576;2023-05-09T23:06:53;10.4;8.4;5.8
45112;PMS5003;30873;53.908;27.576;2023-05-09T23:11:39;10.9;9.7;6.4
45112;PMS5003;30873;53.908;27.576;2023-05-09T23:16:27;10.1;8.9;5.9
45112;PMS5003;30873;53.908;27.576;2023-05-09T23:22:07;11.1;9.3;6
45112;PMS5003;30873;53.908;27.576;2023-05-09T23:27:07;10.6;9.7;6.4
45112;PMS5003;30873;53.908;27.576;2023-05-09T23:31:53;9.2;8.3;5.9
45112;PMS5003;30873;53.908;27.576;2023-05-09T23:36:51;10.5;9.2;6.7
45112;PMS5003;30873;53.908;27.576;2023-05-09T23:41:53;10.1;9;6.4
45112;PMS5003;30873;53.908;27.576;2023-05-09T23:46:25;11.6;9.9;6.4
45112;PMS5003;30873;53.908;27.576;2023-05-09T23:51:37;10;9.4;6.4
45112;PMS5003;30873;53.908;27.576;2023-05-09T23:56:49;11.3;9.7;6.3
